Fruitvale, Colorado
Current Conditions -  °F | °C
As of 4:53 PM on Friday 28 Nov 2014 (Local Time) from KGJT Reporting Station
Clear Clear  
Wind Chill: 42°   Ceiling: Unl
Heat Index: 42°   Visibility: 10mi
Dew Point: 24°   Wind: 0mph
Humidity: 49%   Direction: NA
Pressure: 30.02"   Gusts: NA
Location:  39.0804°N, 108.488°W
Report Text: KGJT 282353Z 00000KT 10SM CLR 06/M04 A3002 RMK AO2 SLP178 T00561044 10100 20056 56012
Loading
Personal Weather Stations






























Interactive Weather Map New forecast layout! Learn more

10-Day Weather Forecast

Advertisements
Track Severe Weather on mobile